sensor_id;sensor_type;location;lat;lon;timestamp;pressure;altitude;pressure_sealevel;temperature;humidity
34566;BME280;20803;42.676;26.348;2024-01-07T00:01:34;97714.81;;;13.60;100.00
34566;BME280;20803;42.676;26.348;2024-01-07T00:03:59;97717.72;;;13.56;100.00
34566;BME280;20803;42.676;26.348;2024-01-07T00:06:25;97714.81;;;13.60;100.00
34566;BME280;20803;42.676;26.348;2024-01-07T00:08:50;97700.44;;;13.70;100.00
34566;BME280;20803;42.676;26.348;2024-01-07T00:11:16;97694.09;;;13.70;100.00
34566;BME280;20803;42.676;26.348;2024-01-07T00:13:41;97693.44;;;13.66;100.00
34566;BME280;20803;42.676;26.348;2024-01-07T00:16:09;97693.56;;;13.62;100.00
34566;BME280;20803;42.676;26.348;2024-01-07T00:18:35;97688.44;;;13.61;100.00
34566;BME280;20803;42.676;26.348;2024-01-07T00:21:00;97677.47;;;13.66;100.00
34566;BME280;20803;42.676;26.348;2024-01-07T00:23:26;97673.16;;;13.74;100.00
34566;BME280;20803;42.676;26.348;2024-01-07T00:25:51;97673.94;;;13.75;100.00
34566;BME280;20803;42.676;26.348;2024-01-07T00:28:17;97669.59;;;13.74;100.00
34566;BME280;20803;42.676;26.348;2024-01-07T00:30:42;97670.69;;;13.76;100.00
34566;BME280;20803;42.676;26.348;2024-01-07T00:33:07;97670.53;;;13.80;100.00
34566;BME280;20803;42.676;26.348;2024-01-07T00:35:33;97662.66;;;13.88;100.00
34566;BME280;20803;42.676;26.348;2024-01-07T00:37:58;97663.00;;;13.90;100.00
34566;BME280;20803;42.676;26.348;2024-01-07T00:40:24;97661.44;;;13.89;100.00
34566;BME280;20803;42.676;26.348;2024-01-07T00:42:50;97664.53;;;13.91;100.00
34566;BME280;20803;42.676;26.348;2024-01-07T00:45:17;97649.75;;;13.81;100.00
34566;BME280;20803;42.676;26.348;2024-01-07T00:47:43;97648.06;;;13.84;100.00
34566;BME280;20803;42.676;26.348;2024-01-07T00:50:08;97644.34;;;13.87;100.00
34566;BME280;20803;42.676;26.348;2024-01-07T00:52:34;97633.94;;;13.78;100.00
34566;BME280;20803;42.676;26.348;2024-01-07T00:55:03;97639.03;;;13.79;100.00
34566;BME280;20803;42.676;26.348;2024-01-07T00:57:29;97631.78;;;13.91;100.00
34566;BME280;20803;42.676;26.348;2024-01-07T00:59:55;97642.50;;;13.84;100.00
34566;BME280;20803;42.676;26.348;2024-01-07T01:02:20;97646.78;;;13.75;100.00
34566;BME280;20803;42.676;26.348;2024-01-07T01:04:46;97642.78;;;13.76;100.00
34566;BME280;20803;42.676;26.348;2024-01-07T01:07:12;97626.94;;;13.73;100.00
34566;BME280;20803;42.676;26.348;2024-01-07T01:09:37;97630.16;;;13.63;100.00
34566;BME280;20803;42.676;26.348;2024-01-07T01:12:03;97642.56;;;13.62;100.00
34566;BME280;20803;42.676;26.348;2024-01-07T01:14:29;97641.50;;;13.68;100.00
34566;BME280;20803;42.676;26.348;2024-01-07T01:16:54;97637.41;;;13.60;100.00
34566;BME280;20803;42.676;26.348;2024-01-07T01:19:20;97627.97;;;13.58;100.00
34566;BME280;20803;42.676;26.348;2024-01-07T01:21:45;97613.06;;;13.52;100.00
34566;BME280;20803;42.676;26.348;2024-01-07T01:24:11;97598.59;;;13.44;100.00
34566;BME280;20803;42.676;26.348;2024-01-07T01:26:37;97590.38;;;13.40;100.00
34566;BME280;20803;42.676;26.348;2024-01-07T01:29:04;97596.34;;;13.30;100.00
34566;BME280;20803;42.676;26.348;2024-01-07T01:31:30;97589.25;;;13.29;100.00
34566;BME280;20803;42.676;26.348;2024-01-07T01:33:55;97580.22;;;13.25;100.00
34566;BME280;20803;42.676;26.348;2024-01-07T01:36:21;97571.66;;;13.19;100.00
34566;BME280;20803;42.676;26.348;2024-01-07T01:38:46;97579.78;;;13.26;100.00
34566;BME280;20803;42.676;26.348;2024-01-07T01:41:14;97584.03;;;13.40;100.00
34566;BME280;20803;42.676;26.348;2024-01-07T01:43:39;97600.50;;;13.56;100.00
34566;BME280;20803;42.676;26.348;2024-01-07T01:46:05;97588.78;;;13.70;100.00
34566;BME280;20803;42.676;26.348;2024-01-07T01:48:31;97594.53;;;13.76;100.00
34566;BME280;20803;42.676;26.348;2024-01-07T01:50:56;97585.22;;;13.79;100.00
34566;BME280;20803;42.676;26.348;2024-01-07T01:53:26;97569.72;;;13.87;100.00
34566;BME280;20803;42.676;26.348;2024-01-07T01:55:52;97550.66;;;13.95;100.00
34566;BME280;20803;42.676;26.348;2024-01-07T01:58:20;97546.47;;;13.90;100.00
34566;BME280;20803;42.676;26.348;2024-01-07T02:00:47;97537.94;;;13.94;100.00
34566;BME280;20803;42.676;26.348;2024-01-07T02:03:12;97518.06;;;13.92;100.00
34566;BME280;20803;42.676;26.348;2024-01-07T02:05:38;97523.50;;;13.86;100.00
34566;BME280;20803;42.676;26.348;2024-01-07T02:08:04;97525.66;;;13.91;100.00
34566;BME280;20803;42.676;26.348;2024-01-07T02:10:30;97514.19;;;13.80;100.00
34566;BME280;20803;42.676;26.348;2024-01-07T02:13:00;97510.63;;;13.70;100.00
34566;BME280;20803;42.676;26.348;2024-01-07T02:15:25;97496.31;;;13.59;100.00
34566;BME280;20803;42.676;26.348;2024-01-07T02:17:53;97504.06;;;13.55;100.00
34566;BME280;20803;42.676;26.348;2024-01-07T02:20:19;97482.97;;;13.45;100.00
34566;BME280;20803;42.676;26.348;2024-01-07T02:22:44;97478.47;;;13.48;100.00
34566;BME280;20803;42.676;26.348;2024-01-07T02:25:10;97460.00;;;13.50;100.00
34566;BME280;20803;42.676;26.348;2024-01-07T02:27:35;97460.91;;;13.38;100.00
34566;BME280;20803;42.676;26.348;2024-01-07T02:30:01;97452.69;;;13.25;100.00
34566;BME280;20803;42.676;26.348;2024-01-07T02:32:27;97446.03;;;13.23;100.00
34566;BME280;20803;42.676;26.348;2024-01-07T02:34:52;97452.84;;;13.22;100.00
34566;BME280;20803;42.676;26.348;2024-01-07T02:37:18;97450.66;;;13.26;100.00
34566;BME280;20803;42.676;26.348;2024-01-07T02:39:43;97451.44;;;13.17;100.00
34566;BME280;20803;42.676;26.348;2024-01-07T02:42:10;97448.41;;;13.12;100.00
34566;BME280;20803;42.676;26.348;2024-01-07T02:44:35;97447.09;;;13.16;100.00
34566;BME280;20803;42.676;26.348;2024-01-07T02:47:01;97449.72;;;13.20;100.00
34566;BME280;20803;42.676;26.348;2024-01-07T02:49:26;97425.44;;;13.29;100.00
34566;BME280;20803;42.676;26.348;2024-01-07T02:51:51;97435.81;;;13.29;100.00
34566;BME280;20803;42.676;26.348;2024-01-07T02:54:17;97446.47;;;13.30;100.00
34566;BME280;20803;42.676;26.348;2024-01-07T02:56:42;97446.34;;;13.43;100.00
34566;BME280;20803;42.676;26.348;2024-01-07T02:59:08;97457.84;;;13.54;100.00
34566;BME280;20803;42.676;26.348;2024-01-07T03:01:33;97458.63;;;13.73;100.00
34566;BME280;20803;42.676;26.348;2024-01-07T03:04:06;97432.28;;;13.83;100.00
34566;BME280;20803;42.676;26.348;2024-01-07T03:06:32;97431.38;;;13.77;100.00
34566;BME280;20803;42.676;26.348;2024-01-07T03:08:57;97418.94;;;13.60;100.00
34566;BME280;20803;42.676;26.348;2024-01-07T03:11:23;97415.97;;;13.54;100.00
34566;BME280;20803;42.676;26.348;2024-01-07T03:13:48;97414.09;;;13.42;100.00
34566;BME280;20803;42.676;26.348;2024-01-07T03:16:21;97394.13;;;13.34;100.00
34566;BME280;20803;42.676;26.348;2024-01-07T03:18:47;97387.13;;;13.30;100.00
34566;BME280;20803;42.676;26.348;2024-01-07T03:21:19;97373.47;;;13.14;100.00
34566;BME280;20803;42.676;26.348;2024-01-07T03:23:46;97364.59;;;13.06;100.00
34566;BME280;20803;42.676;26.348;2024-01-07T03:26:12;97360.28;;;13.05;100.00
34566;BME280;20803;42.676;26.348;2024-01-07T03:28:38;97359.34;;;12.99;100.00
34566;BME280;20803;42.676;26.348;2024-01-07T03:31:09;97364.53;;;12.88;100.00
34566;BME280;20803;42.676;26.348;2024-01-07T03:33:35;97379.88;;;12.83;100.00
34566;BME280;20803;42.676;26.348;2024-01-07T03:36:01;97372.91;;;12.79;100.00
34566;BME280;20803;42.676;26.348;2024-01-07T03:38:31;97374.75;;;12.73;100.00
34566;BME280;20803;42.676;26.348;2024-01-07T03:40:56;97371.34;;;12.78;100.00
34566;BME280;20803;42.676;26.348;2024-01-07T03:43:22;97355.53;;;12.75;100.00
34566;BME280;20803;42.676;26.348;2024-01-07T03:45:47;97360.69;;;12.85;100.00
34566;BME280;20803;42.676;26.348;2024-01-07T03:48:14;97328.78;;;12.86;100.00
34566;BME280;20803;42.676;26.348;2024-01-07T03:50:40;97324.13;;;12.83;100.00
34566;BME280;20803;42.676;26.348;2024-01-07T03:53:05;97337.78;;;12.90;100.00
34566;BME280;20803;42.676;26.348;2024-01-07T03:55:31;97331.88;;;12.88;100.00
34566;BME280;20803;42.676;26.348;2024-01-07T03:57:56;97319.66;;;12.86;100.00
34566;BME280;20803;42.676;26.348;2024-01-07T04:00:22;97337.13;;;12.77;100.00
34566;BME280;20803;42.676;26.348;2024-01-07T04:02:47;97319.63;;;12.77;100.00
34566;BME280;20803;42.676;26.348;2024-01-07T04:05:13;97314.97;;;12.83;100.00
34566;BME280;20803;42.676;26.348;2024-01-07T04:07:40;97294.53;;;12.77;100.00
34566;BME280;20803;42.676;26.348;2024-01-07T04:10:06;97274.25;;;12.76;100.00
34566;BME280;20803;42.676;26.348;2024-01-07T04:12:31;97270.69;;;12.76;100.00
34566;BME280;20803;42.676;26.348;2024-01-07T04:14:57;97252.72;;;12.77;100.00
34566;BME280;20803;42.676;26.348;2024-01-07T04:17:23;97247.00;;;12.80;100.00
34566;BME280;20803;42.676;26.348;2024-01-07T04:19:49;97257.53;;;12.67;100.00
34566;BME280;20803;42.676;26.348;2024-01-07T04:22:14;97264.31;;;12.66;100.00
34566;BME280;20803;42.676;26.348;2024-01-07T04:24:41;97251.78;;;12.71;100.00
34566;BME280;20803;42.676;26.348;2024-01-07T04:27:07;97237.84;;;12.71;100.00
34566;BME280;20803;42.676;26.348;2024-01-07T04:29:32;97229.81;;;12.73;100.00
34566;BME280;20803;42.676;26.348;2024-01-07T04:31:58;97223.91;;;12.71;100.00
34566;BME280;20803;42.676;26.348;2024-01-07T04:34:23;97215.56;;;12.71;100.00
34566;BME280;20803;42.676;26.348;2024-01-07T04:36:50;97223.00;;;12.74;100.00
34566;BME280;20803;42.676;26.348;2024-01-07T04:39:15;97236.94;;;12.74;100.00
34566;BME280;20803;42.676;26.348;2024-01-07T04:41:41;97239.25;;;12.75;100.00
34566;BME280;20803;42.676;26.348;2024-01-07T04:44:06;97268.69;;;12.85;100.00
34566;BME280;20803;42.676;26.348;2024-01-07T04:46:38;97280.16;;;12.96;100.00
34566;BME280;20803;42.676;26.348;2024-01-07T04:49:03;97296.09;;;12.96;100.00
34566;BME280;20803;42.676;26.348;2024-01-07T04:51:29;97315.16;;;12.39;100.00
34566;BME280;20803;42.676;26.348;2024-01-07T04:53:55;97318.34;;;12.19;100.00
34566;BME280;20803;42.676;26.348;2024-01-07T04:56:20;97292.44;;;12.41;100.00
34566;BME280;20803;42.676;26.348;2024-01-07T04:58:46;97291.97;;;12.42;100.00
34566;BME280;20803;42.676;26.348;2024-01-07T05:01:11;97306.06;;;12.48;100.00
34566;BME280;20803;42.676;26.348;2024-01-07T05:03:37;97321.38;;;12.43;100.00
34566;BME280;20803;42.676;26.348;2024-01-07T05:06:03;97304.50;;;12.38;100.00
34566;BME280;20803;42.676;26.348;2024-01-07T05:08:29;97306.91;;;12.27;100.00
34566;BME280;20803;42.676;26.348;2024-01-07T05:10:55;97309.22;;;12.19;100.00
34566;BME280;20803;42.676;26.348;2024-01-07T05:13:21;97298.53;;;12.17;100.00
34566;BME280;20803;42.676;26.348;2024-01-07T05:15:47;97306.25;;;12.13;100.00
34566;BME280;20803;42.676;26.348;2024-01-07T05:18:21;97291.25;;;12.20;100.00
34566;BME280;20803;42.676;26.348;2024-01-07T05:20:47;97305.06;;;12.24;100.00
34566;BME280;20803;42.676;26.348;2024-01-07T05:23:12;97313.72;;;12.26;100.00
34566;BME280;20803;42.676;26.348;2024-01-07T05:25:38;97302.38;;;12.20;100.00
34566;BME280;20803;42.676;26.348;2024-01-07T05:28:03;97284.44;;;12.21;100.00
34566;BME280;20803;42.676;26.348;2024-01-07T05:30:29;97257.72;;;12.24;100.00
34566;BME280;20803;42.676;26.348;2024-01-07T05:32:54;97257.88;;;12.29;100.00
34566;BME280;20803;42.676;26.348;2024-01-07T05:35:20;97256.94;;;12.32;100.00
34566;BME280;20803;42.676;26.348;2024-01-07T05:37:45;97247.06;;;12.31;100.00
34566;BME280;20803;42.676;26.348;2024-01-07T05:40:11;97240.88;;;12.36;100.00
34566;BME280;20803;42.676;26.348;2024-01-07T05:42:37;97241.50;;;12.40;100.00
34566;BME280;20803;42.676;26.348;2024-01-07T05:45:02;97222.78;;;12.41;100.00
34566;BME280;20803;42.676;26.348;2024-01-07T05:47:28;97208.53;;;12.39;100.00
34566;BME280;20803;42.676;26.348;2024-01-07T05:49:55;97203.59;;;12.43;100.00
34566;BME280;20803;42.676;26.348;2024-01-07T05:52:21;97241.69;;;12.55;100.00
34566;BME280;20803;42.676;26.348;2024-01-07T05:54:46;97233.31;;;12.46;100.00
34566;BME280;20803;42.676;26.348;2024-01-07T05:57:14;97233.63;;;12.48;100.00
34566;BME280;20803;42.676;26.348;2024-01-07T05:59:39;97240.91;;;12.45;100.00
34566;BME280;20803;42.676;26.348;2024-01-07T06:02:05;97244.16;;;12.44;100.00
34566;BME280;20803;42.676;26.348;2024-01-07T06:04:30;97228.53;;;12.46;100.00
34566;BME280;20803;42.676;26.348;2024-01-07T06:06:56;97201.25;;;12.23;100.00
34566;BME280;20803;42.676;26.348;2024-01-07T06:09:21;97212.38;;;12.32;100.00
34566;BME280;20803;42.676;26.348;2024-01-07T06:11:47;97203.88;;;12.27;100.00
34566;BME280;20803;42.676;26.348;2024-01-07T06:14:12;97216.84;;;12.11;100.00
34566;BME280;20803;42.676;26.348;2024-01-07T06:16:38;97228.69;;;12.03;100.00
34566;BME280;20803;42.676;26.348;2024-01-07T06:19:04;97218.78;;;11.93;100.00
34566;BME280;20803;42.676;26.348;2024-01-07T06:21:29;97208.25;;;11.88;100.00
34566;BME280;20803;42.676;26.348;2024-01-07T06:23:55;97213.16;;;11.84;100.00
34566;BME280;20803;42.676;26.348;2024-01-07T06:26:20;97220.56;;;11.77;100.00
34566;BME280;20803;42.676;26.348;2024-01-07T06:28:46;97233.28;;;11.66;100.00
34566;BME280;20803;42.676;26.348;2024-01-07T06:31:11;97229.44;;;11.63;100.00
34566;BME280;20803;42.676;26.348;2024-01-07T06:33:37;97218.31;;;11.63;100.00
34566;BME280;20803;42.676;26.348;2024-01-07T06:36:02;97218.91;;;11.58;100.00
34566;BME280;20803;42.676;26.348;2024-01-07T06:38:28;97220.56;;;11.56;100.00
34566;BME280;20803;42.676;26.348;2024-01-07T06:40:53;97239.78;;;11.63;100.00
34566;BME280;20803;42.676;26.348;2024-01-07T06:43:27;97228.84;;;11.47;100.00
34566;BME280;20803;42.676;26.348;2024-01-07T06:45:52;97227.13;;;11.40;100.00
34566;BME280;20803;42.676;26.348;2024-01-07T06:48:19;97248.91;;;11.42;100.00
34566;BME280;20803;42.676;26.348;2024-01-07T06:50:44;97221.50;;;11.31;100.00
34566;BME280;20803;42.676;26.348;2024-01-07T06:53:10;97206.50;;;11.28;100.00
34566;BME280;20803;42.676;26.348;2024-01-07T06:55:35;97212.53;;;11.27;100.00
34566;BME280;20803;42.676;26.348;2024-01-07T06:58:02;97211.94;;;11.32;100.00
34566;BME280;20803;42.676;26.348;2024-01-07T07:00:27;97206.72;;;11.34;100.00
34566;BME280;20803;42.676;26.348;2024-01-07T07:02:53;97230.03;;;11.36;100.00
34566;BME280;20803;42.676;26.348;2024-01-07T07:05:18;97213.03;;;11.34;100.00
34566;BME280;20803;42.676;26.348;2024-01-07T07:07:44;97227.69;;;11.35;100.00
34566;BME280;20803;42.676;26.348;2024-01-07T07:10:10;97217.53;;;11.41;100.00
34566;BME280;20803;42.676;26.348;2024-01-07T07:12:36;97219.88;;;11.43;100.00
34566;BME280;20803;42.676;26.348;2024-01-07T07:15:02;97233.53;;;11.50;100.00
34566;BME280;20803;42.676;26.348;2024-01-07T07:17:27;97229.88;;;11.62;100.00
34566;BME280;20803;42.676;26.348;2024-01-07T07:19:53;97228.63;;;11.85;100.00
34566;BME280;20803;42.676;26.348;2024-01-07T07:22:18;97219.72;;;11.99;100.00
34566;BME280;20803;42.676;26.348;2024-01-07T07:24:44;97225.03;;;12.15;100.00
34566;BME280;20803;42.676;26.348;2024-01-07T07:27:09;97216.88;;;12.30;100.00
34566;BME280;20803;42.676;26.348;2024-01-07T07:29:35;97214.41;;;12.32;100.00
34566;BME280;20803;42.676;26.348;2024-01-07T07:32:00;97206.84;;;12.41;100.00
34566;BME280;20803;42.676;26.348;2024-01-07T07:34:26;97198.97;;;12.49;100.00
34566;BME280;20803;42.676;26.348;2024-01-07T07:36:51;97184.88;;;12.43;100.00
34566;BME280;20803;42.676;26.348;2024-01-07T07:39:17;97201.44;;;12.47;100.00
34566;BME280;20803;42.676;26.348;2024-01-07T07:41:42;97210.28;;;12.54;100.00
34566;BME280;20803;42.676;26.348;2024-01-07T07:44:08;97215.03;;;12.36;100.00
34566;BME280;20803;42.676;26.348;2024-01-07T07:46:33;97189.53;;;12.37;100.00
34566;BME280;20803;42.676;26.348;2024-01-07T07:48:59;97206.06;;;12.41;100.00
34566;BME280;20803;42.676;26.348;2024-01-07T07:51:26;97199.59;;;12.53;100.00
34566;BME280;20803;42.676;26.348;2024-01-07T07:53:51;97194.03;;;12.71;100.00
34566;BME280;20803;42.676;26.348;2024-01-07T07:56:17;97190.47;;;12.89;100.00
34566;BME280;20803;42.676;26.348;2024-01-07T07:58:43;97190.16;;;12.78;100.00
34566;BME280;20803;42.676;26.348;2024-01-07T08:01:08;97192.91;;;12.41;100.00
34566;BME280;20803;42.676;26.348;2024-01-07T08:03:34;97184.44;;;12.54;100.00
34566;BME280;20803;42.676;26.348;2024-01-07T08:06:00;97172.97;;;12.52;100.00
34566;BME280;20803;42.676;26.348;2024-01-07T08:08:25;97190.91;;;12.42;100.00
34566;BME280;20803;42.676;26.348;2024-01-07T08:10:51;97183.78;;;12.41;100.00
34566;BME280;20803;42.676;26.348;2024-01-07T08:13:16;97186.75;;;12.65;100.00
34566;BME280;20803;42.676;26.348;2024-01-07T08:15:42;97201.47;;;12.74;100.00
34566;BME280;20803;42.676;26.348;2024-01-07T08:18:08;97198.50;;;12.87;100.00
34566;BME280;20803;42.676;26.348;2024-01-07T08:20:33;97191.41;;;12.95;100.00
34566;BME280;20803;42.676;26.348;2024-01-07T08:22:59;97191.06;;;12.93;100.00
34566;BME280;20803;42.676;26.348;2024-01-07T08:25:25;97209.53;;;13.09;100.00
34566;BME280;20803;42.676;26.348;2024-01-07T08:27:50;97209.22;;;13.25;100.00
34566;BME280;20803;42.676;26.348;2024-01-07T08:30:16;97198.34;;;13.36;100.00
34566;BME280;20803;42.676;26.348;2024-01-07T08:32:42;97193.81;;;13.57;100.00
34566;BME280;20803;42.676;26.348;2024-01-07T08:35:08;97193.81;;;13.57;100.00
34566;BME280;20803;42.676;26.348;2024-01-07T08:37:34;97188.47;;;13.77;100.00
34566;BME280;20803;42.676;26.348;2024-01-07T08:40:00;97195.44;;;13.72;100.00
34566;BME280;20803;42.676;26.348;2024-01-07T08:42:26;97188.88;;;13.94;100.00
34566;BME280;20803;42.676;26.348;2024-01-07T08:44:52;97183.31;;;13.85;100.00
34566;BME280;20803;42.676;26.348;2024-01-07T08:47:18;97162.56;;;13.76;100.00
34566;BME280;20803;42.676;26.348;2024-01-07T08:49:43;97160.97;;;13.52;100.00
34566;BME280;20803;42.676;26.348;2024-01-07T08:52:09;97147.59;;;13.56;100.00
34566;BME280;20803;42.676;26.348;2024-01-07T08:54:36;97155.25;;;13.46;100.00
34566;BME280;20803;42.676;26.348;2024-01-07T08:57:02;97153.16;;;13.65;100.00
34566;BME280;20803;42.676;26.348;2024-01-07T08:59:28;97141.34;;;13.70;100.00
34566;BME280;20803;42.676;26.348;2024-01-07T09:01:53;97125.72;;;13.63;100.00
34566;BME280;20803;42.676;26.348;2024-01-07T09:04:19;97125.97;;;13.74;100.00
34566;BME280;20803;42.676;26.348;2024-01-07T09:06:44;97116.94;;;13.79;100.00
34566;BME280;20803;42.676;26.348;2024-01-07T09:09:10;97122.72;;;13.76;100.00
34566;BME280;20803;42.676;26.348;2024-01-07T09:11:36;97117.16;;;13.67;100.00
34566;BME280;20803;42.676;26.348;2024-01-07T09:14:02;97106.69;;;13.86;100.00
34566;BME280;20803;42.676;26.348;2024-01-07T09:16:29;97111.47;;;13.94;100.00
34566;BME280;20803;42.676;26.348;2024-01-07T09:18:55;97097.25;;;13.83;100.00
34566;BME280;20803;42.676;26.348;2024-01-07T09:21:20;97096.41;;;13.92;100.00
34566;BME280;20803;42.676;26.348;2024-01-07T09:23:46;97075.75;;;13.98;100.00
34566;BME280;20803;42.676;26.348;2024-01-07T09:26:11;97074.38;;;14.17;100.00
34566;BME280;20803;42.676;26.348;2024-01-07T09:28:37;97084.78;;;14.17;100.00
34566;BME280;20803;42.676;26.348;2024-01-07T09:31:02;97080.78;;;14.09;100.00
34566;BME280;20803;42.676;26.348;2024-01-07T09:33:28;97069.81;;;14.05;100.00
34566;BME280;20803;42.676;26.348;2024-01-07T09:35:54;97058.38;;;14.18;100.00
34566;BME280;20803;42.676;26.348;2024-01-07T09:38:20;97070.63;;;14.20;100.00
34566;BME280;20803;42.676;26.348;2024-01-07T09:40:45;97043.53;;;14.12;100.00
34566;BME280;20803;42.676;26.348;2024-01-07T09:43:12;97049.75;;;14.31;100.00
34566;BME280;20803;42.676;26.348;2024-01-07T09:45:38;97043.94;;;14.19;100.00
34566;BME280;20803;42.676;26.348;2024-01-07T09:48:06;97039.91;;;13.97;100.00
34566;BME280;20803;42.676;26.348;2024-01-07T09:50:32;97044.53;;;14.23;100.00
34566;BME280;20803;42.676;26.348;2024-01-07T09:52:58;97038.16;;;14.23;100.00
34566;BME280;20803;42.676;26.348;2024-01-07T09:55:33;97051.09;;;14.35;100.00
34566;BME280;20803;42.676;26.348;2024-01-07T09:57:59;97037.41;;;14.61;100.00
34566;BME280;20803;42.676;26.348;2024-01-07T10:00:26;97036.75;;;14.81;100.00
34566;BME280;20803;42.676;26.348;2024-01-07T10:02:53;97021.31;;;14.85;100.00
34566;BME280;20803;42.676;26.348;2024-01-07T10:05:18;97014.34;;;15.10;100.00
34566;BME280;20803;42.676;26.348;2024-01-07T10:07:44;97019.53;;;15.32;100.00
34566;BME280;20803;42.676;26.348;2024-01-07T10:10:15;97015.75;;;15.35;100.00
34566;BME280;20803;42.676;26.348;2024-01-07T10:12:41;97027.34;;;15.28;100.00
34566;BME280;20803;42.676;26.348;2024-01-07T10:15:07;97015.84;;;15.40;100.00
34566;BME280;20803;42.676;26.348;2024-01-07T10:17:33;97017.56;;;15.67;100.00
34566;BME280;20803;42.676;26.348;2024-01-07T10:19:58;97015.75;;;15.85;100.00
34566;BME280;20803;42.676;26.348;2024-01-07T10:22:24;97002.16;;;15.77;100.00
34566;BME280;20803;42.676;26.348;2024-01-07T10:24:51;96993.66;;;16.12;100.00
34566;BME280;20803;42.676;26.348;2024-01-07T10:27:17;96982.16;;;16.31;97.16
34566;BME280;20803;42.676;26.348;2024-01-07T10:29:42;96986.06;;;16.39;96.54
34566;BME280;20803;42.676;26.348;2024-01-07T10:32:08;96986.50;;;16.32;96.87
34566;BME280;20803;42.676;26.348;2024-01-07T10:34:35;96966.72;;;16.41;97.17
34566;BME280;20803;42.676;26.348;2024-01-07T10:37:02;96971.63;;;16.46;95.16
34566;BME280;20803;42.676;26.348;2024-01-07T10:39:29;96971.16;;;16.27;97.74
34566;BME280;20803;42.676;26.348;2024-01-07T10:41:55;96975.06;;;16.35;95.55
34566;BME280;20803;42.676;26.348;2024-01-07T10:44:30;96975.84;;;16.36;97.63
34566;BME280;20803;42.676;26.348;2024-01-07T10:46:57;96983.41;;;16.30;99.86
34566;BME280;20803;42.676;26.348;2024-01-07T10:49:28;96962.84;;;16.12;99.22
34566;BME280;20803;42.676;26.348;2024-01-07T10:52:04;96955.78;;;15.97;95.65
34566;BME280;20803;42.676;26.348;2024-01-07T10:54:31;96948.47;;;16.05;95.75
34566;BME280;20803;42.676;26.348;2024-01-07T10:57:04;96962.84;;;16.12;95.87
34566;BME280;20803;42.676;26.348;2024-01-07T10:59:33;96957.25;;;16.12;95.26
34566;BME280;20803;42.676;26.348;2024-01-07T11:01:59;96984.34;;;16.01;95.51
34566;BME280;20803;42.676;26.348;2024-01-07T11:04:41;96967.28;;;15.78;95.89
34566;BME280;20803;42.676;26.348;2024-01-07T11:07:23;96958.94;;;15.49;100.00
34566;BME280;20803;42.676;26.348;2024-01-07T11:10:18;96966.81;;;15.45;100.00
34566;BME280;20803;42.676;26.348;2024-01-07T11:12:55;96956.00;;;15.53;100.00
34566;BME280;20803;42.676;26.348;2024-01-07T11:18:21;96952.88;;;15.86;99.85
34566;BME280;20803;42.676;26.348;2024-01-07T11:20:47;96943.13;;;15.81;100.00
34566;BME280;20803;42.676;26.348;2024-01-07T11:23:33;96948.28;;;15.88;96.83
34566;BME280;20803;42.676;26.348;2024-01-07T11:26:00;96953.13;;;16.08;99.63
34566;BME280;20803;42.676;26.348;2024-01-07T11:28:49;96942.09;;;16.24;96.84
34566;BME280;20803;42.676;26.348;2024-01-07T11:31:19;96938.63;;;15.89;99.32
34566;BME280;20803;42.676;26.348;2024-01-07T11:33:49;96935.13;;;15.74;100.00
34566;BME280;20803;42.676;26.348;2024-01-07T11:36:16;96944.31;;;15.54;100.00
34566;BME280;20803;42.676;26.348;2024-01-07T11:38:48;96937.56;;;15.46;100.00
34566;BME280;20803;42.676;26.348;2024-01-07T11:41:15;96935.03;;;15.48;100.00
34566;BME280;20803;42.676;26.348;2024-01-07T11:43:54;96935.16;;;15.54;100.00
34566;BME280;20803;42.676;26.348;2024-01-07T11:46:22;96931.34;;;15.57;100.00
34566;BME280;20803;42.676;26.348;2024-01-07T11:48:49;96935.31;;;15.50;100.00
34566;BME280;20803;42.676;26.348;2024-01-07T11:51:15;96929.41;;;15.63;100.00
34566;BME280;20803;42.676;26.348;2024-01-07T11:53:42;96928.09;;;15.78;100.00
34566;BME280;20803;42.676;26.348;2024-01-07T11:56:10;96924.81;;;16.06;100.00
34566;BME280;20803;42.676;26.348;2024-01-07T11:58:37;96930.03;;;16.65;93.56
34566;BME280;20803;42.676;26.348;2024-01-07T12:01:03;96934.13;;;16.43;98.84
34566;BME280;20803;42.676;26.348;2024-01-07T12:03:29;96929.94;;;16.33;96.32
34566;BME280;20803;42.676;26.348;2024-01-07T12:05:54;96917.63;;;16.25;100.00
34566;BME280;20803;42.676;26.348;2024-01-07T12:08:20;96911.53;;;16.01;100.00
34566;BME280;20803;42.676;26.348;2024-01-07T12:10:46;96912.53;;;15.98;100.00
34566;BME280;20803;42.676;26.348;2024-01-07T12:13:13;96908.47;;;15.78;100.00
34566;BME280;20803;42.676;26.348;2024-01-07T12:15:39;96907.63;;;15.72;100.00
34566;BME280;20803;42.676;26.348;2024-01-07T12:18:04;96916.22;;;15.69;100.00
34566;BME280;20803;42.676;26.348;2024-01-07T12:20:30;96913.94;;;15.67;100.00
34566;BME280;20803;42.676;26.348;2024-01-07T12:22:56;96922.34;;;15.67;100.00
34566;BME280;20803;42.676;26.348;2024-01-07T12:25:23;96925.19;;;15.53;100.00
34566;BME280;20803;42.676;26.348;2024-01-07T12:27:51;96926.28;;;15.40;100.00
34566;BME280;20803;42.676;26.348;2024-01-07T12:30:20;96928.44;;;15.31;100.00
34566;BME280;20803;42.676;26.348;2024-01-07T12:32:46;96933.84;;;15.34;100.00
34566;BME280;20803;42.676;26.348;2024-01-07T12:35:11;96918.06;;;15.37;100.00
34566;BME280;20803;42.676;26.348;2024-01-07T12:37:37;96921.56;;;15.32;100.00
34566;BME280;20803;42.676;26.348;2024-01-07T12:40:04;96916.97;;;15.29;100.00